Time;durP1;ratioP1;P1;durP2;ratioP2;P2;SDS_P1;SDS_P2;PMS_P1;PMS_P2;Temp;Humidity;BMP_temperature;BMP_pressure;BME280_temperature;BME280_humidity;BME280_pressure;Samples;Min_cycle;Max_cycle;Signal;HPM_P1;HPM_P2
2024/03/07 00:01:48;;;;;;;1.50;1.40;;;9.60;99.90;;;;;;5004691;28;20490;-79
2024/03/07 00:04:13;;;;;;;2.60;1.67;;;9.50;99.90;;;;;;5002350;28;20459;-79
2024/03/07 00:06:40;;;;;;;2.35;2.13;;;9.40;99.90;;;;;;5035604;28;20050;-79
2024/03/07 00:09:06;;;;;;;2.05;1.95;;;9.40;99.90;;;;;;5001426;28;20116;-79
2024/03/07 00:11:32;;;;;;;2.10;2.00;;;9.40;99.90;;;;;;4999558;28;20108;-79
2024/03/07 00:13:57;;;;;;;1.85;1.67;;;9.50;99.90;;;;;;5002238;28;20073;-79
2024/03/07 00:16:23;;;;;;;4.05;1.92;;;9.50;99.90;;;;;;5006620;28;20042;-79
2024/03/07 00:18:48;;;;;;;3.17;1.80;;;9.40;99.90;;;;;;5005499;28;20104;-79
2024/03/07 00:21:14;;;;;;;1.88;1.77;;;9.40;99.90;;;;;;4997757;28;20033;-79
2024/03/07 00:23:40;;;;;;;2.67;1.70;;;9.40;99.90;;;;;;5002737;28;20039;-79
2024/03/07 00:26:05;;;;;;;1.70;1.58;;;9.40;99.90;;;;;;5019011;28;20025;-79
2024/03/07 00:28:35;;;;;;;1.90;1.80;;;9.30;99.90;;;;;;5004104;28;20391;-79
2024/03/07 00:31:00;;;;;;;2.45;2.25;;;9.30;99.90;;;;;;5002035;28;20030;-79
2024/03/07 00:33:26;;;;;;;2.40;1.27;;;9.30;99.90;;;;;;5001107;28;20069;-79
2024/03/07 00:35:55;;;;;;;1.30;1.20;;;9.20;99.90;;;;;;5009019;28;20029;-79
2024/03/07 00:38:21;;;;;;;1.95;1.25;;;9.20;99.90;;;;;;5003039;28;20471;-79
2024/03/07 00:40:46;;;;;;;2.42;1.30;;;9.20;99.90;;;;;;4997607;28;20033;-79
2024/03/07 00:43:13;;;;;;;3.33;1.30;;;9.20;99.90;;;;;;4997286;28;20081;-79
2024/03/07 00:45:39;;;;;;;1.42;1.33;;;9.20;99.90;;;;;;5008532;28;20022;-79
2024/03/07 00:48:05;;;;;;;3.65;1.30;;;9.20;99.90;;;;;;5006414;28;20105;-79
2024/03/07 00:50:32;;;;;;;1.10;1.10;;;9.20;99.90;;;;;;5001816;28;20030;-79
2024/03/07 00:53:00;;;;;;;2.15;1.30;;;9.20;99.90;;;;;;5004099;28;20026;-79
2024/03/07 00:55:26;;;;;;;2.67;1.10;;;9.20;99.90;;;;;;5001045;28;20026;-79
2024/03/07 00:57:52;;;;;;;2.03;1.10;;;9.20;99.90;;;;;;4998135;28;20101;-79
2024/03/07 01:00:21;;;;;;;0.90;0.90;;;9.20;99.90;;;;;;5003931;28;20050;-79
2024/03/07 01:02:47;;;;;;;1.20;1.10;;;9.10;99.90;;;;;;5017438;28;20064;-79
2024/03/07 01:05:17;;;;;;;1.40;1.27;;;9.10;99.90;;;;;;5018892;28;20050;-79
2024/03/07 01:07:44;;;;;;;1.10;1.10;;;9.10;99.90;;;;;;5019315;28;20026;-79
2024/03/07 01:10:10;;;;;;;3.85;1.17;;;9.10;99.90;;;;;;5015707;28;20051;-79
2024/03/07 01:12:36;;;;;;;1.52;1.13;;;9.10;99.90;;;;;;5000657;28;20031;-79
2024/03/07 01:15:04;;;;;;;1.27;1.10;;;9.10;99.90;;;;;;5002567;28;20092;-79
2024/03/07 01:17:29;;;;;;;0.93;0.90;;;9.10;99.90;;;;;;5001145;28;20109;-79
2024/03/07 01:19:55;;;;;;;1.10;1.00;;;9.10;99.90;;;;;;5004590;28;20112;-79
2024/03/07 01:22:22;;;;;;;1.70;1.02;;;9.10;99.90;;;;;;5016058;28;20514;-79
2024/03/07 01:24:48;;;;;;;1.30;1.20;;;9.00;99.90;;;;;;5006595;28;20030;-79
2024/03/07 01:27:13;;;;;;;1.70;1.55;;;9.00;99.90;;;;;;4999772;28;20107;-79
2024/03/07 01:29:44;;;;;;;1.10;1.10;;;9.10;99.90;;;;;;5006551;28;20033;-79
2024/03/07 01:32:10;;;;;;;1.20;1.10;;;9.00;99.90;;;;;;5008624;28;20033;-79
2024/03/07 01:34:36;;;;;;;1.05;0.98;;;9.00;99.90;;;;;;5021362;28;20081;-79
2024/03/07 01:37:01;;;;;;;0.90;0.90;;;9.00;99.90;;;;;;5019029;28;20369;-79
2024/03/07 01:39:27;;;;;;;2.03;1.00;;;9.00;99.90;;;;;;5015121;28;20033;-79
2024/03/07 01:41:53;;;;;;;1.35;1.20;;;9.00;99.90;;;;;;4997066;28;20113;-79
2024/03/07 01:44:19;;;;;;;2.95;1.42;;;8.90;99.90;;;;;;4999568;28;20080;-79
2024/03/07 01:46:45;;;;;;;1.00;1.00;;;8.90;99.90;;;;;;5002544;28;20065;-79
2024/03/07 01:49:11;;;;;;;1.95;0.90;;;8.90;99.90;;;;;;5019691;28;20101;-79
2024/03/07 01:51:38;;;;;;;0.88;0.88;;;8.90;99.90;;;;;;5016373;28;20057;-79
2024/03/07 01:54:11;;;;;;;3.35;1.20;;;9.00;99.90;;;;;;4998759;28;20052;-79
2024/03/07 01:56:38;;;;;;;0.90;0.90;;;8.90;99.90;;;;;;5002506;28;20076;-79
2024/03/07 01:59:05;;;;;;;1.98;0.98;;;8.90;99.90;;;;;;5003653;28;20034;-79
2024/03/07 02:01:31;;;;;;;1.27;0.90;;;8.90;99.90;;;;;;5003836;28;20018;-79
2024/03/07 02:03:57;;;;;;;1.27;1.00;;;8.90;99.90;;;;;;5003622;28;20022;-79
2024/03/07 02:06:24;;;;;;;3.38;1.10;;;8.90;99.90;;;;;;5014734;28;20080;-79
2024/03/07 02:08:49;;;;;;;1.00;1.00;;;8.90;99.90;;;;;;4996999;28;20479;-78
2024/03/07 02:11:15;;;;;;;1.95;1.15;;;8.90;99.90;;;;;;5008845;28;20046;-79
2024/03/07 02:13:41;;;;;;;1.50;1.25;;;8.90;99.90;;;;;;4995944;28;20064;-79
2024/03/07 02:16:07;;;;;;;1.35;1.00;;;8.80;99.90;;;;;;5014695;28;20041;-79
2024/03/07 02:18:35;;;;;;;1.00;1.00;;;8.80;99.90;;;;;;5004892;28;20030;-78
2024/03/07 02:21:00;;;;;;;1.98;0.98;;;8.80;99.90;;;;;;5000562;28;20049;-79
2024/03/07 02:23:27;;;;;;;1.83;0.95;;;8.80;99.90;;;;;;4997743;28;20022;-79
2024/03/07 02:25:53;;;;;;;2.00;1.00;;;8.80;99.90;;;;;;4994657;28;20627;-79
2024/03/07 02:28:19;;;;;;;2.63;0.90;;;8.80;99.90;;;;;;5003579;28;20034;-79
2024/03/07 02:30:45;;;;;;;1.52;1.23;;;8.80;99.90;;;;;;5003301;28;20476;-79
2024/03/07 02:33:11;;;;;;;2.22;1.13;;;8.80;99.90;;;;;;5011653;28;20018;-79
2024/03/07 02:35:37;;;;;;;0.82;0.82;;;8.80;99.90;;;;;;5019425;28;20036;-79
2024/03/07 02:38:05;;;;;;;1.00;0.88;;;8.80;99.90;;;;;;5001050;28;20026;-79
2024/03/07 02:40:31;;;;;;;0.90;0.90;;;8.80;99.90;;;;;;5004055;28;20416;-78
2024/03/07 02:42:57;;;;;;;1.30;1.20;;;8.80;99.90;;;;;;4996099;28;20022;-79
2024/03/07 02:45:23;;;;;;;0.70;0.70;;;8.80;99.90;;;;;;5004549;28;20061;-78
2024/03/07 02:47:49;;;;;;;0.85;0.85;;;8.80;99.90;;;;;;5004136;28;20061;-78
2024/03/07 02:50:15;;;;;;;1.38;1.02;;;8.80;99.90;;;;;;5012113;28;20038;-79
2024/03/07 02:52:41;;;;;;;1.27;1.20;;;8.80;99.90;;;;;;4999460;28;20034;-79
2024/03/07 02:55:10;;;;;;;0.80;0.80;;;8.80;99.90;;;;;;4999270;28;20030;-79
2024/03/07 02:57:36;;;;;;;1.38;1.08;;;8.80;99.90;;;;;;5013891;28;20033;-79
2024/03/07 03:00:03;;;;;;;0.80;0.80;;;8.80;99.90;;;;;;5016176;28;20439;-79
2024/03/07 03:02:28;;;;;;;0.80;0.80;;;8.80;99.90;;;;;;5003007;28;20022;-79
2024/03/07 03:04:54;;;;;;;1.95;0.80;;;8.80;99.90;;;;;;5007378;28;20178;-79
2024/03/07 03:07:20;;;;;;;1.17;1.00;;;8.80;99.90;;;;;;5022508;28;20033;-79
2024/03/07 03:09:46;;;;;;;0.95;0.85;;;8.80;99.90;;;;;;5007311;28;20335;-79
2024/03/07 03:12:12;;;;;;;2.35;0.60;;;8.80;99.90;;;;;;5013758;28;20041;-79
2024/03/07 03:14:39;;;;;;;2.40;1.30;;;8.80;99.90;;;;;;5003502;28;20384;-79
2024/03/07 03:17:08;;;;;;;2.75;1.00;;;8.80;99.90;;;;;;5007196;28;20030;-79
2024/03/07 03:19:35;;;;;;;0.90;0.90;;;8.80;99.90;;;;;;5004420;28;20480;-79
2024/03/07 03:22:00;;;;;;;1.20;1.10;;;8.70;99.90;;;;;;5012087;28;20033;-79
2024/03/07 03:24:27;;;;;;;1.10;1.10;;;8.80;99.90;;;;;;5001695;28;20056;-79
2024/03/07 03:26:52;;;;;;;1.13;0.95;;;8.70;99.90;;;;;;4999568;28;20097;-79
2024/03/07 03:29:18;;;;;;;0.70;0.70;;;8.80;99.90;;;;;;4999202;28;20620;-79
2024/03/07 03:31:44;;;;;;;0.98;0.98;;;8.80;99.90;;;;;;5005519;28;20121;-79
2024/03/07 03:34:10;;;;;;;2.38;0.85;;;8.80;99.90;;;;;;5008310;28;20018;-79
2024/03/07 03:36:35;;;;;;;1.70;1.10;;;8.80;99.90;;;;;;5022071;28;20034;-79
2024/03/07 03:39:01;;;;;;;0.88;0.88;;;8.70;99.90;;;;;;5018168;28;20030;-79
2024/03/07 03:41:27;;;;;;;1.60;1.17;;;8.70;99.90;;;;;;5006286;28;20545;-79
2024/03/07 03:43:53;;;;;;;1.60;1.10;;;8.60;99.90;;;;;;5005599;28;20435;-79
2024/03/07 03:46:18;;;;;;;3.33;1.10;;;8.50;99.90;;;;;;5017450;28;20037;-79
2024/03/07 03:48:44;;;;;;;2.97;1.08;;;8.50;99.90;;;;;;5008201;28;20026;-79
2024/03/07 03:51:13;;;;;;;0.98;0.93;;;8.50;99.90;;;;;;5006358;28;20038;-79
2024/03/07 03:53:40;;;;;;;1.52;1.20;;;8.50;99.90;;;;;;5002833;28;20085;-79
2024/03/07 03:56:09;;;;;;;1.40;1.30;;;8.50;99.90;;;;;;5003821;28;20033;-79
2024/03/07 03:58:34;;;;;;;1.20;1.00;;;8.60;99.90;;;;;;5008143;28;20068;-79
2024/03/07 04:01:00;;;;;;;2.25;1.50;;;8.60;99.90;;;;;;5002205;28;20026;-79
2024/03/07 04:03:26;;;;;;;1.05;1.02;;;8.60;99.90;;;;;;5001485;28;20546;-79
2024/03/07 04:05:52;;;;;;;0.90;0.88;;;8.60;99.90;;;;;;5006456;28;20487;-79
2024/03/07 04:08:20;;;;;;;1.10;1.10;;;8.60;99.90;;;;;;5006212;28;20018;-79
2024/03/07 04:10:45;;;;;;;1.52;1.10;;;8.60;99.90;;;;;;5003933;28;20034;-79
2024/03/07 04:13:11;;;;;;;1.13;1.10;;;8.60;99.90;;;;;;5008355;28;20026;-79
2024/03/07 04:15:37;;;;;;;3.13;1.20;;;8.60;99.90;;;;;;5002163;28;20068;-79
2024/03/07 04:18:03;;;;;;;1.75;1.40;;;8.60;99.90;;;;;;5005672;28;20018;-79
2024/03/07 04:20:28;;;;;;;1.45;1.20;;;8.60;99.90;;;;;;5001404;28;20473;-79
2024/03/07 04:22:55;;;;;;;1.20;1.10;;;8.60;99.90;;;;;;5004340;28;20026;-78
2024/03/07 04:25:21;;;;;;;3.38;1.30;;;8.40;99.90;;;;;;5001517;28;20052;-79
2024/03/07 04:27:50;;;;;;;1.98;1.10;;;8.30;99.90;;;;;;5005259;28;20026;-79
2024/03/07 04:30:16;;;;;;;1.42;1.33;;;8.30;99.90;;;;;;5009027;28;20026;-79
2024/03/07 04:32:42;;;;;;;3.53;1.15;;;8.30;99.90;;;;;;5016479;28;20030;-79
2024/03/07 04:35:10;;;;;;;1.95;1.20;;;8.30;99.90;;;;;;5007211;28;20030;-79
2024/03/07 04:37:39;;;;;;;1.55;1.27;;;8.30;99.90;;;;;;5020761;28;20026;-79
2024/03/07 04:40:14;;;;;;;2.58;1.27;;;8.30;99.90;;;;;;5001585;28;20074;-78
2024/03/07 04:42:42;;;;;;;1.80;1.42;;;8.30;99.90;;;;;;5002389;28;20027;-79
2024/03/07 04:45:10;;;;;;;3.67;1.60;;;8.30;99.90;;;;;;4998523;28;20037;-79
2024/03/07 04:47:36;;;;;;;1.52;1.33;;;8.40;99.90;;;;;;5000291;28;20026;-79
2024/03/07 04:50:02;;;;;;;2.10;1.30;;;8.30;99.90;;;;;;5001420;28;20089;-79
2024/03/07 04:52:28;;;;;;;3.17;1.60;;;8.40;99.90;;;;;;5016661;28;20444;-79
2024/03/07 04:54:54;;;;;;;2.20;2.00;;;8.40;99.90;;;;;;5020779;28;20026;-79
2024/03/07 04:57:20;;;;;;;2.42;1.80;;;8.40;99.90;;;;;;5004083;28;20028;-79
2024/03/07 04:59:46;;;;;;;1.83;1.73;;;8.40;99.90;;;;;;5016408;28;20459;-79
2024/03/07 05:02:11;;;;;;;3.33;2.00;;;8.40;99.90;;;;;;5016558;28;20022;-79
2024/03/07 05:04:37;;;;;;;2.33;1.60;;;8.30;99.90;;;;;;5008965;28;20415;-79
2024/03/07 05:07:03;;;;;;;4.32;1.80;;;8.30;99.90;;;;;;5028279;28;20072;-79
2024/03/07 05:09:29;;;;;;;2.40;1.80;;;8.30;99.90;;;;;;5004989;28;20049;-79
2024/03/07 05:11:55;;;;;;;2.20;1.80;;;8.40;99.90;;;;;;5004755;28;20541;-79
2024/03/07 05:14:27;;;;;;;2.08;1.83;;;8.30;99.90;;;;;;5006430;28;20029;-79
2024/03/07 05:17:05;;;;;;;2.13;1.88;;;8.30;99.90;;;;;;5005164;28;20026;-79
2024/03/07 05:19:35;;;;;;;1.48;1.38;;;8.30;99.90;;;;;;5005101;28;20033;-79
2024/03/07 05:22:02;;;;;;;2.25;1.48;;;8.30;99.90;;;;;;4997793;28;20026;-79
2024/03/07 05:24:28;;;;;;;1.77;1.40;;;8.30;99.90;;;;;;5001524;28;20403;-79
2024/03/07 05:26:54;;;;;;;3.90;1.75;;;8.30;99.90;;;;;;5009827;28;20033;-79
2024/03/07 05:29:20;;;;;;;2.03;1.55;;;8.40;99.90;;;;;;5000867;28;20022;-79
2024/03/07 05:31:49;;;;;;;2.10;1.80;;;8.40;99.90;;;;;;5003590;28;20029;-79
2024/03/07 05:34:18;;;;;;;2.13;1.92;;;8.40;99.90;;;;;;5002369;28;20472;-79
2024/03/07 05:36:47;;;;;;;2.72;1.75;;;8.30;99.90;;;;;;5004301;28;20475;-79
2024/03/07 05:39:14;;;;;;;1.70;1.60;;;8.30;99.90;;;;;;5000836;28;20030;-79
2024/03/07 05:41:41;;;;;;;2.15;1.85;;;8.40;99.90;;;;;;5006640;28;20436;-79
2024/03/07 05:44:11;;;;;;;4.82;1.60;;;8.40;99.90;;;;;;5005743;28;20029;-79
2024/03/07 05:46:41;;;;;;;1.70;1.60;;;8.30;99.90;;;;;;5003694;28;20104;-79
2024/03/07 05:49:09;;;;;;;1.80;1.70;;;8.30;99.90;;;;;;5003742;28;20026;-79
2024/03/07 05:51:35;;;;;;;2.38;1.80;;;8.30;99.90;;;;;;5002370;28;20519;-79
2024/03/07 05:54:02;;;;;;;2.13;1.90;;;8.30;99.90;;;;;;5002403;28;20042;-79
2024/03/07 05:56:27;;;;;;;2.10;1.90;;;8.20;99.90;;;;;;5000496;28;20034;-79
2024/03/07 05:58:56;;;;;;;5.00;2.40;;;8.20;99.90;;;;;;5003018;28;20526;-79
2024/03/07 06:01:27;;;;;;;2.80;1.95;;;8.20;99.90;;;;;;5006650;28;20026;-79
2024/03/07 06:03:52;;;;;;;2.67;1.63;;;8.20;99.90;;;;;;5002791;28;20026;-79
2024/03/07 06:06:18;;;;;;;2.55;1.90;;;8.10;99.90;;;;;;4997159;28;20461;-79
2024/03/07 06:08:44;;;;;;;2.55;2.03;;;8.10;99.90;;;;;;5000424;28;20027;-79
2024/03/07 06:11:10;;;;;;;3.53;2.10;;;8.10;99.90;;;;;;5018800;28;20050;-79
2024/03/07 06:13:36;;;;;;;2.45;2.35;;;8.20;99.90;;;;;;5011153;28;20475;-79
2024/03/07 06:16:05;;;;;;;3.00;2.40;;;8.20;99.90;;;;;;5011141;28;20088;-79
2024/03/07 06:18:31;;;;;;;4.93;3.05;;;8.10;99.90;;;;;;5011388;28;20076;-79
2024/03/07 06:20:57;;;;;;;2.75;2.55;;;8.10;99.90;;;;;;5009157;28;20108;-79
2024/03/07 06:23:22;;;;;;;4.30;2.83;;;8.10;99.90;;;;;;5009365;28;20018;-79
2024/03/07 06:25:51;;;;;;;3.90;2.90;;;8.10;99.90;;;;;;5010897;28;20415;-79
2024/03/07 06:28:17;;;;;;;5.00;3.35;;;8.10;99.90;;;;;;5009302;28;20026;-79
2024/03/07 06:30:47;;;;;;;5.22;2.85;;;8.10;99.90;;;;;;5006896;28;20057;-79
2024/03/07 06:33:14;;;;;;;4.38;3.15;;;8.10;99.90;;;;;;5008587;28;20026;-79
2024/03/07 06:35:41;;;;;;;3.42;3.22;;;8.10;99.90;;;;;;5007787;28;20448;-79
2024/03/07 06:38:08;;;;;;;3.72;2.90;;;8.10;99.90;;;;;;5002828;28;20049;-79
2024/03/07 06:40:42;;;;;;;3.78;2.67;;;8.00;99.90;;;;;;5000266;28;20121;-79
2024/03/07 06:43:10;;;;;;;3.42;3.10;;;8.00;99.90;;;;;;4999549;28;20177;-79
2024/03/07 06:45:36;;;;;;;3.35;3.05;;;8.00;99.90;;;;;;5003221;28;20025;-79
2024/03/07 06:48:04;;;;;;;2.95;2.75;;;7.90;99.90;;;;;;4996821;28;20545;-79
2024/03/07 06:50:30;;;;;;;4.00;3.28;;;7.90;99.90;;;;;;5017011;28;20029;-79
2024/03/07 06:52:56;;;;;;;3.53;3.22;;;8.00;99.90;;;;;;5029822;28;20040;-78
2024/03/07 06:55:22;;;;;;;3.80;3.50;;;8.00;99.90;;;;;;4997557;28;20492;-75
2024/03/07 06:57:47;;;;;;;5.65;4.28;;;8.00;99.90;;;;;;5001434;28;20078;-75
2024/03/07 07:00:19;;;;;;;7.47;6.28;;;8.00;99.90;;;;;;5001380;28;20069;-76
2024/03/07 07:02:46;;;;;;;;;;;8.00;99.90;;;;;;4996608;28;20109;-75
2024/03/07 07:05:12;;;;;;;9.07;8.18;;;8.00;99.90;;;;;;5008535;28;20420;-75
2024/03/07 07:07:38;;;;;;;9.05;6.80;;;8.00;99.90;;;;;;4999188;28;20026;-75
2024/03/07 07:10:08;;;;;;;7.60;4.78;;;8.00;99.90;;;;;;4997906;28;20554;-76
2024/03/07 07:12:34;;;;;;;4.22;3.67;;;8.00;99.90;;;;;;4999417;28;20038;-76
2024/03/07 07:15:00;;;;;;;6.75;3.92;;;8.00;99.90;;;;;;5017152;28;20030;-76
2024/03/07 07:17:28;;;;;;;4.57;4.10;;;8.10;99.90;;;;;;4999328;28;20030;-76
2024/03/07 07:19:58;;;;;;;4.30;4.00;;;8.10;99.90;;;;;;4999751;28;20049;-75
2024/03/07 07:22:24;;;;;;;6.43;3.88;;;8.10;99.90;;;;;;5004395;28;20030;-76
2024/03/07 07:24:50;;;;;;;3.65;3.40;;;8.10;99.90;;;;;;5001928;28;20026;-75
2024/03/07 07:27:15;;;;;;;2.95;2.65;;;8.10;99.90;;;;;;5004133;28;20045;-75
2024/03/07 07:29:41;;;;;;;4.28;3.20;;;8.20;99.90;;;;;;5009455;28;20041;-76
2024/03/07 07:32:07;;;;;;;3.60;2.90;;;8.20;99.90;;;;;;5005716;28;20496;-75
2024/03/07 07:34:33;;;;;;;3.10;2.80;;;8.30;99.90;;;;;;5002614;28;20081;-75
2024/03/07 07:36:59;;;;;;;3.03;2.83;;;8.30;99.90;;;;;;5010466;28;20216;-75
2024/03/07 07:39:25;;;;;;;4.30;3.22;;;8.40;99.90;;;;;;5002232;28;20442;-75
2024/03/07 07:41:51;;;;;;;3.90;3.55;;;8.40;99.90;;;;;;5004377;28;20114;-75
2024/03/07 07:44:17;;;;;;;7.07;2.88;;;8.50;99.90;;;;;;5008901;28;20030;-76
2024/03/07 07:46:43;;;;;;;3.70;3.30;;;8.50;99.90;;;;;;5001219;28;20041;-75
2024/03/07 07:49:09;;;;;;;3.42;2.92;;;8.60;99.90;;;;;;5005652;28;20018;-75
2024/03/07 07:51:35;;;;;;;4.30;3.13;;;8.70;99.90;;;;;;5020810;28;20021;-75
2024/03/07 07:54:00;;;;;;;3.45;3.15;;;8.80;99.90;;;;;;5019186;28;20255;-75
2024/03/07 07:56:28;;;;;;;3.33;3.13;;;8.80;99.90;;;;;;5003400;28;20062;-75
2024/03/07 07:58:54;;;;;;;4.60;3.47;;;8.90;99.90;;;;;;5005783;28;20451;-75
2024/03/07 08:01:22;;;;;;;5.47;4.90;;;9.00;99.90;;;;;;5002402;28;20054;-75
2024/03/07 08:03:48;;;;;;;7.78;5.65;;;9.00;99.90;;;;;;5002831;28;20425;-75
2024/03/07 08:06:14;;;;;;;4.85;4.53;;;9.10;99.90;;;;;;5003155;28;20074;-75
2024/03/07 08:08:40;;;;;;;5.70;4.00;;;9.20;99.90;;;;;;5002785;28;20440;-75
2024/03/07 08:11:10;;;;;;;6.68;3.85;;;9.30;99.90;;;;;;5005260;28;20061;-75
2024/03/07 08:13:36;;;;;;;4.88;3.33;;;9.30;99.90;;;;;;5002897;28;20026;-75
2024/03/07 08:16:03;;;;;;;4.90;3.63;;;9.40;99.90;;;;;;5003813;28;20399;-75
2024/03/07 08:18:29;;;;;;;4.40;3.15;;;9.50;99.90;;;;;;5003990;28;20050;-76
2024/03/07 08:20:56;;;;;;;4.72;2.83;;;9.50;99.90;;;;;;5002276;28;20018;-75
2024/03/07 08:23:25;;;;;;;4.72;3.40;;;9.60;99.90;;;;;;5001793;28;20026;-75
2024/03/07 08:25:50;;;;;;;6.20;2.72;;;9.60;99.90;;;;;;5004082;28;20411;-76
2024/03/07 08:28:16;;;;;;;6.05;3.15;;;9.70;99.90;;;;;;5018806;28;20175;-75
2024/03/07 08:30:42;;;;;;;4.30;2.67;;;9.70;99.90;;;;;;5002482;28;20074;-75
2024/03/07 08:33:08;;;;;;;2.90;2.50;;;9.80;99.90;;;;;;5003421;28;20265;-75
2024/03/07 08:35:34;;;;;;;4.55;2.58;;;9.90;99.90;;;;;;5016162;28;20445;-75
2024/03/07 08:38:00;;;;;;;9.00;3.53;;;9.90;99.90;;;;;;5006695;28;20373;-76
2024/03/07 08:40:32;;;;;;;3.78;2.83;;;10.00;99.90;;;;;;5005472;28;20038;-75
2024/03/07 08:42:58;;;;;;;6.13;3.13;;;10.00;99.90;;;;;;5005451;28;20268;-76
2024/03/07 08:45:25;;;;;;;6.53;3.35;;;10.10;99.90;;;;;;5000989;28;20034;-75
2024/03/07 08:47:54;;;;;;;7.10;3.20;;;10.20;99.90;;;;;;5002142;28;20034;-75
2024/03/07 08:50:20;;;;;;;7.28;3.13;;;10.20;99.90;;;;;;5002838;28;20017;-75
2024/03/07 08:52:47;;;;;;;5.70;2.88;;;10.30;99.90;;;;;;5003953;28;20032;-75
2024/03/07 08:55:14;;;;;;;5.03;2.90;;;10.40;99.90;;;;;;5001129;28;20022;-75
2024/03/07 08:57:41;;;;;;;4.60;2.95;;;10.40;99.90;;;;;;5018997;28;20166;-76
2024/03/07 09:00:09;;;;;;;2.15;2.00;;;10.50;99.90;;;;;;5005214;28;20022;-75
2024/03/07 09:02:35;;;;;;;3.15;2.42;;;10.50;99.90;;;;;;5000582;28;20511;-75
2024/03/07 09:05:05;;;;;;;4.97;2.22;;;10.50;99.90;;;;;;5005686;28;20408;-75
2024/03/07 09:07:31;;;;;;;3.13;2.30;;;10.60;99.90;;;;;;5000375;28;20026;-75
2024/03/07 09:09:57;;;;;;;2.72;2.45;;;10.70;90.90;;;;;;5002710;28;20565;-75
2024/03/07 09:12:25;;;;;;;2.53;2.38;;;10.70;90.50;;;;;;5003289;28;20023;-75
2024/03/07 09:14:52;;;;;;;4.20;2.22;;;10.80;93.00;;;;;;5001005;28;20098;-75
2024/03/07 09:17:18;;;;;;;5.88;2.92;;;10.80;87.70;;;;;;5002587;28;20049;-76
2024/03/07 09:19:44;;;;;;;3.80;2.75;;;10.90;92.20;;;;;;5004235;28;20482;-75
2024/03/07 09:22:10;;;;;;;11.57;3.53;;;10.90;98.40;;;;;;5002666;28;20060;-75
2024/03/07 09:24:37;;;;;;;4.88;2.97;;;11.00;99.90;;;;;;5000229;28;20027;-75
2024/03/07 09:27:03;;;;;;;4.22;3.20;;;11.10;50.30;;;;;;5000170;28;20080;-76
2024/03/07 09:29:29;;;;;;;5.93;2.78;;;11.10;72.60;;;;;;5003229;28;20072;-76
2024/03/07 09:31:55;;;;;;;7.30;3.40;;;11.20;97.60;;;;;;5006517;28;20104;-76
2024/03/07 09:34:21;;;;;;;4.32;3.90;;;11.30;66.10;;;;;;5001988;28;20027;-75
2024/03/07 09:36:48;;;;;;;10.30;4.75;;;11.40;89.50;;;;;;4999489;28;20034;-75
2024/03/07 09:39:15;;;;;;;14.32;4.57;;;11.50;85.50;;;;;;5002380;28;20037;-76
2024/03/07 09:41:41;;;;;;;7.90;3.75;;;11.50;93.00;;;;;;4999993;28;20540;-76
2024/03/07 09:44:11;;;;;;;8.43;4.30;;;11.60;57.00;;;;;;5001620;28;20387;-75
2024/03/07 09:46:38;;;;;;;5.82;3.95;;;11.60;76.00;;;;;;5002442;28;20018;-75
2024/03/07 09:49:05;;;;;;;7.78;3.50;;;11.60;25.50;;;;;;5016127;28;20030;-76
2024/03/07 09:51:33;;;;;;;9.10;4.00;;;11.60;32.30;;;;;;5007113;28;20033;-75
2024/03/07 09:53:59;;;;;;;12.77;3.67;;;11.60;22.20;;;;;;4999808;28;20104;-75
2024/03/07 09:56:31;;;;;;;6.60;3.75;;;11.60;34.30;;;;;;4999608;28;20034;-75
2024/03/07 09:59:01;;;;;;;8.00;3.25;;;11.60;56.80;;;;;;4998542;28;20019;-75
2024/03/07 10:01:31;;;;;;;5.68;3.60;;;11.60;77.50;;;;;;5005084;28;20018;-75
2024/03/07 10:04:11;;;;;;;3.58;2.92;;;11.60;70.60;;;;;;5003978;28;20487;-75
2024/03/07 10:06:40;;;;;;;9.77;3.83;;;11.50;78.00;;;;;;4997151;28;20022;-75
2024/03/07 10:09:07;;;;;;;5.15;3.65;;;11.50;16.50;;;;;;4999723;28;20077;-76
2024/03/07 10:11:34;;;;;;;16.38;4.68;;;11.50;35.60;;;;;;5000239;28;20026;-75
2024/03/07 10:14:00;;;;;;;7.63;3.95;;;11.50;47.30;;;;;;5007475;28;20022;-75
2024/03/07 10:16:25;;;;;;;18.80;5.45;;;11.50;60.10;;;;;;5003409;28;20503;-75
2024/03/07 10:18:51;;;;;;;10.60;4.50;;;11.60;59.90;;;;;;4999482;28;20484;-75
2024/03/07 10:21:20;;;;;;;9.60;4.28;;;11.60;61.50;;;;;;4998383;28;20054;-75
2024/03/07 10:23:47;;;;;;;7.22;4.40;;;11.70;67.00;;;;;;5002733;28;20030;-75
2024/03/07 10:26:12;;;;;;;6.15;3.83;;;11.70;79.40;;;;;;5018670;28;20030;-76
2024/03/07 10:28:38;;;;;;;7.90;3.80;;;11.80;60.00;;;;;;4999273;28;20038;-75
2024/03/07 10:31:11;;;;;;;5.82;4.00;;;11.90;99.90;;;;;;5000218;28;20511;-76
2024/03/07 10:33:40;;;;;;;8.27;4.40;;;12.00;96.00;;;;;;5000559;28;20085;-76
2024/03/07 10:36:09;;;;;;;6.70;3.75;;;12.20;99.90;;;;;;5005523;28;20117;-75
2024/03/07 10:38:37;;;;;;;7.13;4.32;;;12.30;97.60;;;;;;5000028;28;20033;-75
2024/03/07 10:41:04;;;;;;;7.82;4.57;;;12.40;40.70;;;;;;5000852;28;20034;-75
2024/03/07 10:43:32;;;;;;;5.10;3.70;;;12.40;43.40;;;;;;5003000;28;20018;-75
2024/03/07 10:46:01;;;;;;;9.85;4.18;;;12.40;53.20;;;;;;4999218;28;20026;-75
2024/03/07 10:48:32;;;;;;;15.32;4.75;;;12.50;52.00;;;;;;4999922;28;20054;-75
2024/03/07 10:51:21;;;;;;;5.75;4.18;;;12.50;27.70;;;;;;5003803;28;20026;-75
2024/03/07 10:53:59;;;;;;;7.10;4.13;;;12.40;2.20;;;;;;5003809;28;20049;-75
2024/03/07 10:56:41;;;;;;;8.65;4.32;;;12.40;28.70;;;;;;5004800;28;20388;-75
2024/03/07 10:59:22;;;;;;;6.75;5.35;;;12.40;26.20;;;;;;5002521;28;20101;-75
2024/03/07 11:01:49;;;;;;;7.65;4.75;;;12.40;19.20;;;;;;5002261;28;20393;-75
2024/03/07 11:04:16;;;;;;;10.00;5.13;;;12.50;29.90;;;;;;5002108;28;20049;-76
2024/03/07 11:06:42;;;;;;;6.43;3.90;;;12.60;5.20;;;;;;5008312;28;20018;-75
2024/03/07 11:09:10;;;;;;;6.72;5.00;;;12.60;1.00;;;;;;5003532;28;20034;-75
2024/03/07 11:11:43;;;;;;;7.35;4.78;;;12.70;3.20;;;;;;5003699;28;20481;-75
2024/03/07 11:14:11;;;;;;;11.35;5.45;;;12.70;1.00;;;;;;5003605;28;20026;-75
2024/03/07 11:16:41;;;;;;;4.75;4.07;;;12.90;12.80;;;;;;5019803;28;20116;-76
2024/03/07 11:19:31;;;;;;;6.15;4.65;;;13.00;38.70;;;;;;5004749;28;20026;-76
2024/03/07 11:21:59;;;;;;;7.05;5.10;;;13.10;20.60;;;;;;5007321;28;20049;-75
2024/03/07 11:24:31;;;;;;;5.82;4.78;;;13.20;1.00;;;;;;5003087;28;20109;-75
2024/03/07 11:26:57;;;;;;;6.72;5.20;;;13.30;1.70;;;;;;5004517;28;20026;-75
2024/03/07 11:29:52;;;;;;;11.73;4.72;;;13.30;1.00;;;;;;5009017;28;20026;-75
2024/03/07 11:32:20;;;;;;;10.10;4.53;;;13.30;1.00;;;;;;5006059;28;20057;-75
2024/03/07 11:34:47;;;;;;;6.38;4.53;;;13.30;1.00;;;;;;5002233;28;20064;-75
2024/03/07 11:37:48;;;;;;;7.35;5.38;;;13.40;1.00;;;;;;5002449;28;20042;-76
2024/03/07 11:40:20;;;;;;;9.25;5.63;;;13.50;1.00;;;;;;5005809;28;20026;-75
2024/03/07 11:42:47;;;;;;;;;;;13.50;1.00;;;;;;5006299;28;20554;-75
2024/03/07 11:45:25;;;;;;;6.97;4.60;;;13.60;1.00;;;;;;5004724;28;20350;-75
2024/03/07 11:48:00;;;;;;;7.72;5.07;;;13.40;1.00;;;;;;5001925;28;20044;-75
2024/03/07 11:50:28;;;;;;;6.60;4.68;;;13.60;1.00;;;;;;5004498;28;20206;-75
2024/03/07 11:52:56;;;;;;;16.65;5.75;;;13.60;1.00;;;;;;5002720;28;20030;-75
2024/03/07 11:55:22;;;;;;;8.02;5.82;;;13.80;10.00;;;;;;5002341;28;20400;-75
2024/03/07 11:57:50;;;;;;;7.45;5.50;;;13.90;1.00;;;;;;5004816;28;20045;-75
2024/03/07 12:00:20;;;;;;;10.15;6.18;;;13.90;1.00;;;;;;5004231;28;20109;-75
2024/03/07 12:02:48;;;;;;;9.75;6.18;;;14.00;1.00;;;;;;5001037;28;20018;-75
2024/03/07 12:05:16;;;;;;;9.35;6.50;;;14.00;1.00;;;;;;5007468;28;20061;-75
2024/03/07 12:07:43;;;;;;;9.57;6.03;;;14.00;1.00;;;;;;5001537;28;20050;-75
2024/03/07 12:10:10;;;;;;;8.73;6.30;;;14.00;1.00;;;;;;5019400;28;20866;-76
2024/03/07 12:12:39;;;;;;;8.38;5.93;;;14.10;1.00;;;;;;5002302;28;20029;-76
2024/03/07 12:15:14;;;;;;;5.97;4.75;;;14.20;1.00;;;;;;5000994;28;20400;-76
2024/03/07 12:17:41;;;;;;;6.80;5.15;;;14.30;99.90;;;;;;5001780;28;20048;-76
2024/03/07 12:20:24;;;;;;;6.07;5.43;;;14.40;99.90;;;;;;5003743;28;20026;-75
2024/03/07 12:22:53;;;;;;;8.15;5.55;;;14.30;1.00;;;;;;5003020;28;20046;-75
2024/03/07 12:25:21;;;;;;;8.73;5.38;;;14.40;1.00;;;;;;5001670;28;20026;-75
2024/03/07 12:28:00;;;;;;;7.70;5.22;;;14.40;99.90;;;;;;5004541;28;20029;-76
2024/03/07 12:30:27;;;;;;;7.80;5.18;;;14.60;1.00;;;;;;5004842;28;20225;-76
2024/03/07 12:32:53;;;;;;;10.07;6.40;;;14.70;99.90;;;;;;5001834;28;20498;-75
2024/03/07 12:35:18;;;;;;;8.50;5.65;;;14.70;1.00;;;;;;5002658;28;20029;-75
2024/03/07 12:37:46;;;;;;;6.47;5.60;;;14.80;1.00;;;;;;5016181;28;20026;-76
2024/03/07 12:40:19;;;;;;;10.05;5.57;;;14.70;99.90;;;;;;5002610;28;20113;-76
2024/03/07 12:42:50;;;;;;;6.72;5.18;;;14.60;99.90;;;;;;5006989;28;20033;-76
2024/03/07 12:45:20;;;;;;;9.43;5.85;;;14.50;1.00;;;;;;5003635;28;20030;-75
2024/03/07 12:47:52;;;;;;;9.80;6.63;;;14.40;1.00;;;;;;5004179;28;20504;-75
2024/03/07 12:50:21;;;;;;;9.85;5.90;;;14.30;1.00;;;;;;5000944;28;20037;-75
2024/03/07 12:52:51;;;;;;;8.43;5.75;;;14.30;1.00;;;;;;5019747;28;20080;-75
2024/03/07 12:55:23;;;;;;;9.13;5.53;;;14.20;1.00;;;;;;5016055;28;20365;-75
2024/03/07 12:57:49;;;;;;;7.90;6.28;;;14.00;99.90;;;;;;5001960;28;20026;-75